Berthoud High School, Colorado
Current Conditions -  °F | °C
As of 10:13 AM on Friday 31 Oct 2014 (Local Time) from KLMO Reporting Station
Clear Clear  
Wind Chill: 40°   Ceiling: Unl
Heat Index: 43°   Visibility: 10mi
Dew Point: 32°   Wind: 5mph
Humidity: 64%   Direction: 50°NE
Pressure: 30.33"   Gusts: NA
Location:  40.29797°N, 105.0863°W
Report Text: KLMO 311613Z AUTO 05004KT 10SM CLR 06/00 A3033 RMK AO2 T00621002
Loading
Personal Weather Stations






























Interactive Weather Map
Tropical Storm Tracking
New forecast layout! Learn more

10-Day Weather Forecast

Advertisements
Track Severe Weather on mobile